createdAt,value
2019-01-26T00:01:54.543Z,18.93
2019-01-26T00:04:56.169Z,22.43
2019-01-26T00:07:52.661Z,20.80
2019-01-26T00:10:49.203Z,17.50
2019-01-26T00:13:47.016Z,21.37
2019-01-26T00:16:44.573Z,15.57
2019-01-26T00:19:41.187Z,18.87
2019-01-26T00:22:36.711Z,17.70
2019-01-26T00:25:32.651Z,18.77
2019-01-26T00:28:27.959Z,17.33
2019-01-26T00:31:24.513Z,22.93
2019-01-26T00:34:20.266Z,21.70
2019-01-26T00:37:17.931Z,21.30
2019-01-26T00:40:14.416Z,22.70
2019-01-26T00:43:09.880Z,22.30
2019-01-26T00:46:06.333Z,23.03
2019-01-26T00:49:00.775Z,22.63
2019-01-26T00:51:57.276Z,21.27
2019-01-26T00:54:53.019Z,19.48
2019-01-26T00:57:50.532Z,21.37
2019-01-26T01:00:46.113Z,24.23
2019-01-26T01:03:42.851Z,24.20
2019-01-26T01:06:39.321Z,22.37
2019-01-26T01:09:34.076Z,23.40
2019-01-26T01:12:30.410Z,23.87
2019-01-26T01:15:27.092Z,25.52
2019-01-26T01:18:25.559Z,23.97
2019-01-26T01:21:22.086Z,25.97
2019-01-26T01:24:17.578Z,27.13
2019-01-26T01:27:20.934Z,22.73
2019-01-26T01:30:16.257Z,26.30
2019-01-26T01:33:13.235Z,25.07
2019-01-26T01:36:09.607Z,24.83
2019-01-26T01:39:05.550Z,22.77
2019-01-26T01:42:01.968Z,22.33
2019-01-26T01:44:57.439Z,23.67
2019-01-26T01:47:54.946Z,22.63
2019-01-26T01:50:50.704Z,25.37
2019-01-26T01:53:47.111Z,30.30
2019-01-26T01:56:44.600Z,23.63
2019-01-26T01:59:40.108Z,21.90
2019-01-26T02:02:36.450Z,22.75
2019-01-26T02:05:31.470Z,21.10
2019-01-26T02:08:29.503Z,22.47
2019-01-26T02:11:26.050Z,25.27
2019-01-26T02:14:27.420Z,24.73
2019-01-26T02:17:35.202Z,24.27
2019-01-26T02:20:33.084Z,26.42
2019-01-26T02:23:29.680Z,20.40
2019-01-26T02:26:25.156Z,24.60
2019-01-26T02:29:22.690Z,28.37
2019-01-26T02:32:18.434Z,25.30
2019-01-26T02:35:14.983Z,21.40
2019-01-26T02:38:12.658Z,22.63
2019-01-26T02:41:08.392Z,19.47
2019-01-26T02:44:05.921Z,17.95
2019-01-26T02:47:00.804Z,22.30
2019-01-26T02:49:58.071Z,21.03
2019-01-26T02:52:53.508Z,18.70
2019-01-26T02:55:50.048Z,19.40
2019-01-26T02:58:47.516Z,17.47
2019-01-26T03:01:43.873Z,20.10
2019-01-26T03:04:38.633Z,16.70
2019-01-26T03:07:35.936Z,17.10
2019-01-26T03:10:32.271Z,17.07
2019-01-26T03:13:29.646Z,14.83
2019-01-26T03:16:27.129Z,18.17
2019-01-26T03:19:24.653Z,16.50
2019-01-26T03:22:22.414Z,16.80
2019-01-26T03:25:17.771Z,13.87
2019-01-26T03:28:14.188Z,13.50
2019-01-26T03:31:09.771Z,15.47
2019-01-26T03:34:06.433Z,13.78
2019-01-26T03:37:03.133Z,10.70
2019-01-26T03:39:59.625Z,14.03
2019-01-26T03:42:56.389Z,11.63
2019-01-26T03:45:51.873Z,13.03
2019-01-26T03:48:48.588Z,12.45
2019-01-26T03:51:44.311Z,11.87
2019-01-26T03:54:40.665Z,11.93
2019-01-26T03:57:36.416Z,10.90
2019-01-26T04:00:38.039Z,10.03
2019-01-26T04:03:33.575Z,8.80
2019-01-26T04:06:28.715Z,10.48
2019-01-26T04:09:25.066Z,7.70
2019-01-26T04:12:21.917Z,8.40
2019-01-26T04:15:18.663Z,8.40
2019-01-26T04:18:13.557Z,8.30
2019-01-26T04:21:16.223Z,8.33
2019-01-26T04:24:17.739Z,6.85
2019-01-26T04:27:13.185Z,6.50
2019-01-26T04:30:16.083Z,7.53
2019-01-26T04:33:17.464Z,10.63
2019-01-26T04:36:14.169Z,6.13
2019-01-26T04:39:09.806Z,10.93
2019-01-26T04:42:07.014Z,12.30
2019-01-26T04:45:02.504Z,7.93
2019-01-26T04:47:59.039Z,9.50
2019-01-26T04:50:55.490Z,6.33
2019-01-26T04:53:52.297Z,8.03
2019-01-26T04:56:49.835Z,6.90
2019-01-26T04:59:45.263Z,9.70
2019-01-26T05:02:41.775Z,7.05
2019-01-26T05:05:37.202Z,7.10
2019-01-26T05:08:35.047Z,7.57
2019-01-26T05:11:31.752Z,6.60
2019-01-26T05:14:28.234Z,7.75
2019-01-26T05:17:24.992Z,5.33
2019-01-26T05:20:23.713Z,6.63
2019-01-26T05:23:21.053Z,5.87
2019-01-26T05:26:16.736Z,9.20
2019-01-26T05:29:13.348Z,9.00
2019-01-26T05:32:09.028Z,7.40
2019-01-26T05:35:06.412Z,5.27
2019-01-26T05:38:01.986Z,7.07
2019-01-26T05:40:59.471Z,5.40
2019-01-26T05:43:55.999Z,9.80
2019-01-26T05:46:52.380Z,5.60
2019-01-26T05:49:48.839Z,5.78
2019-01-26T05:52:44.595Z,6.75
2019-01-26T05:55:41.163Z,5.80
2019-01-26T05:58:37.509Z,6.00
2019-01-26T06:01:34.985Z,5.73
2019-01-26T06:04:31.678Z,5.37
2019-01-26T06:07:27.117Z,5.63
2019-01-26T06:10:23.580Z,5.17
2019-01-26T06:13:19.311Z,4.83
2019-01-26T06:16:15.588Z,5.92
2019-01-26T06:19:11.069Z,5.10
2019-01-26T06:22:08.906Z,5.87
2019-01-26T06:25:05.841Z,6.03
2019-01-26T06:28:01.330Z,3.93
2019-01-26T06:31:03.770Z,4.13
2019-01-26T06:34:00.285Z,3.60
2019-01-26T06:36:56.783Z,6.00
2019-01-26T06:39:52.157Z,5.87
2019-01-26T06:42:50.967Z,3.98
2019-01-26T06:45:53.626Z,4.87
2019-01-26T06:48:55.111Z,6.43
2019-01-26T06:52:04.973Z,5.00
2019-01-26T06:55:00.720Z,3.50
2019-01-26T06:57:58.502Z,5.43
2019-01-26T07:00:53.871Z,4.67
2019-01-26T07:03:50.375Z,4.57
2019-01-26T07:07:00.840Z,7.53
2019-01-26T07:09:56.521Z,8.30
2019-01-26T07:12:55.232Z,4.25
2019-01-26T07:15:50.663Z,4.80
2019-01-26T07:18:46.947Z,4.37
2019-01-26T07:21:41.756Z,8.30
2019-01-26T07:24:38.142Z,4.93
2019-01-26T07:27:35.667Z,5.27
2019-01-26T07:30:32.054Z,6.43
2019-01-26T07:33:28.837Z,6.43
2019-01-26T07:36:25.434Z,6.83
2019-01-26T07:39:24.097Z,6.97
2019-01-26T07:42:21.604Z,5.07
2019-01-26T07:45:17.497Z,8.10
2019-01-26T07:48:16.978Z,5.57
2019-01-26T07:51:09.615Z,4.20
2019-01-26T07:54:06.510Z,5.40
2019-01-26T07:57:03.013Z,5.10
2019-01-26T07:59:58.621Z,4.53
2019-01-26T08:02:56.334Z,4.43
2019-01-26T08:05:51.881Z,7.67
2019-01-26T08:08:48.485Z,5.70
2019-01-26T08:11:43.994Z,7.87
2019-01-26T08:14:40.670Z,5.43
2019-01-26T08:17:36.732Z,5.70
2019-01-26T08:20:35.851Z,7.83
2019-01-26T08:23:32.297Z,6.77
2019-01-26T08:26:28.196Z,6.60
2019-01-26T08:29:24.965Z,5.60
2019-01-26T08:32:21.655Z,5.20
2019-01-26T08:35:18.322Z,7.10
2019-01-26T08:38:15.839Z,6.27
2019-01-26T08:41:18.328Z,6.80
2019-01-26T08:44:17.064Z,5.90
2019-01-26T08:47:13.740Z,7.72
2019-01-26T08:50:09.454Z,7.47
2019-01-26T08:53:06.410Z,7.63
2019-01-26T08:56:02.022Z,5.87
2019-01-26T08:58:58.652Z,5.90
2019-01-26T09:02:03.498Z,5.53
2019-01-26T09:05:07.286Z,8.93
2019-01-26T09:08:04.005Z,8.53
2019-01-26T09:10:59.871Z,5.37
2019-01-26T09:13:58.271Z,6.90
2019-01-26T09:16:53.760Z,6.17
2019-01-26T09:19:50.274Z,6.80
2019-01-26T09:22:45.943Z,4.50
2019-01-26T09:25:43.627Z,7.30
2019-01-26T09:28:40.753Z,7.53
2019-01-26T09:31:36.091Z,7.40
2019-01-26T09:34:33.588Z,5.83
2019-01-26T09:37:29.238Z,8.07
2019-01-26T09:40:25.598Z,6.20
2019-01-26T09:43:21.991Z,4.03
2019-01-26T09:46:19.011Z,8.30
2019-01-26T09:49:13.733Z,8.13
2019-01-26T09:52:15.246Z,9.20
2019-01-26T09:55:12.280Z,5.80
2019-01-26T09:58:08.759Z,6.83
2019-01-26T10:01:06.453Z,7.27
2019-01-26T10:04:06.921Z,5.87
2019-01-26T10:07:08.847Z,6.70
2019-01-26T10:10:10.568Z,5.80
2019-01-26T10:13:07.229Z,7.78
2019-01-26T10:16:04.955Z,7.23
2019-01-26T10:19:00.555Z,5.70
2019-01-26T10:21:57.202Z,5.50
2019-01-26T10:24:53.715Z,5.37
2019-01-26T10:27:50.417Z,5.60
2019-01-26T10:30:53.555Z,7.23
2019-01-26T10:33:51.263Z,5.20
2019-01-26T10:39:20.403Z,7.70
2019-01-26T10:42:18.382Z,7.00
2019-01-26T10:44:49.327Z,7.93
2019-01-26T10:47:20.186Z,5.50
2019-01-26T10:49:50.653Z,6.97
2019-01-26T10:52:21.454Z,4.67
2019-01-26T11:08:16.547Z,10.13
2019-01-26T11:10:57.564Z,9.67
2019-01-26T11:13:28.478Z,8.83
2019-01-26T11:15:58.645Z,5.17
2019-01-26T11:18:30.193Z,12.17
2019-01-26T11:21:02.369Z,10.97
2019-01-26T11:23:34.217Z,10.83
2019-01-26T11:26:06.113Z,6.30
2019-01-26T11:28:37.929Z,7.25
2019-01-26T11:31:08.116Z,5.00
2019-01-26T11:33:38.313Z,6.50
2019-01-26T11:36:08.427Z,8.80
2019-01-26T11:38:38.516Z,5.43
2019-01-26T11:41:09.715Z,7.70
2019-01-26T11:43:40.794Z,5.83
2019-01-26T11:46:33.857Z,9.33
2019-01-26T11:49:03.945Z,5.90
2019-01-26T11:51:44.150Z,5.53
2019-01-26T11:54:15.867Z,6.67
2019-01-26T11:56:57.387Z,6.60
2019-01-26T11:59:27.673Z,5.67
2019-01-26T12:02:17.420Z,8.50
2019-01-26T12:04:54.824Z,6.03
2019-01-26T12:07:33.418Z,5.10
2019-01-26T12:10:03.763Z,7.00
2019-01-26T12:12:34.742Z,8.47
2019-01-26T12:15:05.855Z,7.03
2019-01-26T12:17:36.770Z,4.73
2019-01-26T12:20:09.655Z,5.87
2019-01-26T12:22:40.217Z,4.67
2019-01-26T12:25:10.597Z,7.17
2019-01-26T12:27:41.622Z,6.73
2019-01-26T12:30:13.135Z,5.40
2019-01-26T12:32:43.324Z,5.20
2019-01-26T12:35:15.210Z,6.50
2019-01-26T12:37:45.259Z,3.47
2019-01-26T12:40:15.284Z,6.10
2019-01-26T12:42:45.309Z,6.30
2019-01-26T12:45:17.946Z,5.30
2019-01-26T12:47:47.981Z,6.95
2019-01-26T12:50:18.001Z,8.65
2019-01-26T12:52:48.029Z,5.70
2019-01-26T12:55:18.061Z,4.20
2019-01-26T12:57:48.052Z,6.20
2019-01-26T13:00:19.641Z,5.33
2019-01-26T13:02:49.749Z,5.17
2019-01-26T13:05:19.771Z,4.20
2019-01-26T13:07:49.809Z,4.17
2019-01-26T13:10:32.484Z,9.93
2019-01-26T13:13:02.467Z,5.33
2019-01-26T13:15:32.595Z,6.05
2019-01-26T13:18:02.658Z,4.83
2019-01-26T13:20:32.699Z,5.57
2019-01-26T13:23:02.811Z,5.10
2019-01-26T13:25:32.848Z,6.33
2019-01-26T13:28:02.920Z,5.78
2019-01-26T13:30:32.988Z,5.60
2019-01-26T13:33:02.976Z,4.42
2019-01-26T13:35:33.043Z,5.47
2019-01-26T13:38:03.035Z,4.47
2019-01-26T13:40:33.446Z,3.60
2019-01-26T13:43:03.461Z,7.00
2019-01-26T13:45:33.532Z,4.67
2019-01-26T13:48:03.679Z,6.00
2019-01-26T13:50:33.771Z,7.00
2019-01-26T13:53:03.865Z,7.67
2019-01-26T13:55:33.887Z,4.50
2019-01-26T13:58:04.104Z,4.03
2019-01-26T14:00:34.127Z,6.72
2019-01-26T14:03:04.319Z,8.83
2019-01-26T14:05:34.423Z,3.87
2019-01-26T14:08:04.626Z,4.00
2019-01-26T14:10:34.630Z,5.87
2019-01-26T14:13:05.260Z,4.22
2019-01-26T14:15:35.259Z,5.30
2019-01-26T14:18:05.431Z,4.92
2019-01-26T14:20:35.437Z,6.40
2019-01-26T14:23:05.533Z,4.00
2019-01-26T14:25:35.511Z,4.13
2019-01-26T14:28:05.707Z,3.90
2019-01-26T14:30:38.610Z,5.20
2019-01-26T14:33:08.574Z,5.47
2019-01-26T14:35:38.660Z,4.43
2019-01-26T14:38:08.828Z,4.43
2019-01-26T14:40:38.868Z,4.03
2019-01-26T14:43:08.888Z,5.25
2019-01-26T14:45:38.909Z,8.90
2019-01-26T14:48:08.906Z,5.72
2019-01-26T14:50:39.038Z,8.83
2019-01-26T14:53:09.136Z,4.63
2019-01-26T14:55:39.345Z,5.10
2019-01-26T14:58:09.441Z,6.03
2019-01-26T15:00:39.725Z,7.30
2019-01-26T15:03:09.834Z,4.37
2019-01-26T15:05:39.988Z,6.70
2019-01-26T15:08:10.130Z,5.90
2019-01-26T15:10:40.260Z,4.07
2019-01-26T15:13:10.397Z,3.40
2019-01-26T15:15:40.624Z,3.13
2019-01-26T15:18:10.749Z,3.83
2019-01-26T15:20:41.513Z,4.77
2019-01-26T15:23:12.399Z,3.70
2019-01-26T15:25:42.521Z,2.93
2019-01-26T15:28:12.671Z,3.50
2019-01-26T15:30:43.621Z,3.67
2019-01-26T15:33:14.453Z,4.10
2019-01-26T15:35:44.528Z,5.13
2019-01-26T15:38:14.587Z,6.33
2019-01-26T15:40:44.607Z,4.93
2019-01-26T15:43:14.639Z,4.33
2019-01-26T15:45:46.807Z,4.80
2019-01-26T15:48:16.961Z,3.80
2019-01-26T15:50:47.002Z,5.10
2019-01-26T15:53:17.301Z,3.97
2019-01-26T15:55:47.362Z,5.13
2019-01-26T15:58:17.410Z,8.03
2019-01-26T16:00:47.579Z,6.53
2019-01-26T16:03:17.630Z,5.05
2019-01-26T16:05:47.732Z,4.10
2019-01-26T16:08:17.783Z,5.23
2019-01-26T16:10:47.852Z,4.63
2019-01-26T16:13:17.878Z,6.37
2019-01-26T16:15:47.968Z,4.63
2019-01-26T16:18:17.942Z,6.87
2019-01-26T16:20:47.989Z,5.20
2019-01-26T16:23:18.003Z,5.03
2019-01-26T16:25:48.036Z,5.13
2019-01-26T16:28:18.012Z,5.80
2019-01-26T16:30:48.084Z,6.50
2019-01-26T16:33:18.897Z,4.67
2019-01-26T16:35:48.953Z,6.65
2019-01-26T16:38:19.121Z,5.50
2019-01-26T16:40:49.391Z,5.30
2019-01-26T16:43:19.519Z,4.57
2019-01-26T16:45:49.575Z,5.20
2019-01-26T16:48:19.628Z,6.17
2019-01-26T16:50:49.902Z,8.73
2019-01-26T16:53:20.091Z,5.40
2019-01-26T16:55:51.241Z,3.90
2019-01-26T16:58:21.232Z,6.80
2019-01-26T17:00:53.828Z,6.67
2019-01-26T17:03:23.950Z,4.70
2019-01-26T17:05:54.148Z,4.90
2019-01-26T17:08:24.391Z,6.20
2019-01-26T17:10:54.523Z,4.90
2019-01-26T17:13:24.915Z,7.33
2019-01-26T17:15:55.049Z,4.30
2019-01-26T17:18:25.148Z,5.70
2019-01-26T17:20:55.419Z,8.23
2019-01-26T17:23:25.715Z,5.83
2019-01-26T17:25:55.870Z,4.70
2019-01-26T17:28:25.990Z,4.30
2019-01-26T17:30:56.151Z,6.03
2019-01-26T17:33:26.186Z,4.13
2019-01-26T17:35:56.337Z,4.70
2019-01-26T17:38:26.429Z,6.30
2019-01-26T17:40:56.469Z,4.40
2019-01-26T17:43:26.683Z,5.72
2019-01-26T17:45:56.832Z,5.17
2019-01-26T17:48:27.009Z,4.03
2019-01-26T17:50:57.095Z,6.23
2019-01-26T17:53:27.250Z,4.53
2019-01-26T17:55:57.343Z,4.43
2019-01-26T17:58:27.468Z,7.13
2019-01-26T18:01:01.240Z,5.28
2019-01-26T18:03:31.347Z,6.03
2019-01-26T18:06:01.437Z,5.15
2019-01-26T18:08:31.630Z,12.30
2019-01-26T18:11:01.762Z,6.53
2019-01-26T18:13:31.861Z,9.50
2019-01-26T18:16:02.015Z,5.17
2019-01-26T18:18:32.172Z,7.33
2019-01-26T18:21:02.434Z,5.10
2019-01-26T18:23:34.115Z,4.50
2019-01-26T18:26:07.821Z,4.60
2019-01-26T18:28:38.120Z,4.70
2019-01-26T18:31:08.253Z,4.47
2019-01-26T18:33:38.669Z,4.03
2019-01-26T18:36:08.731Z,6.33
2019-01-26T18:38:38.919Z,6.57
2019-01-26T18:41:09.010Z,4.90
2019-01-26T18:43:39.215Z,5.80
2019-01-26T18:46:09.327Z,15.10
2019-01-26T18:48:39.395Z,5.83
2019-01-26T18:51:09.545Z,5.50
2019-01-26T18:53:39.706Z,5.62
2019-01-26T18:56:09.830Z,5.30
2019-01-26T18:58:39.961Z,6.60
2019-01-26T19:01:10.055Z,5.60
2019-01-26T19:04:09.008Z,8.30
2019-01-26T19:06:39.243Z,6.53
2019-01-26T19:09:11.404Z,4.90
2019-01-26T19:11:41.544Z,4.90
2019-01-26T19:14:11.889Z,5.97
2019-01-26T19:16:42.234Z,5.30
2019-01-26T19:19:12.401Z,7.22
2019-01-26T19:21:42.678Z,7.40
2019-01-26T19:24:12.845Z,5.70
2019-01-26T19:26:42.949Z,7.40
2019-01-26T19:29:13.133Z,8.13
2019-01-26T19:31:43.271Z,5.77
2019-01-26T19:34:13.465Z,7.60
2019-01-26T19:36:43.656Z,6.45
2019-01-26T19:39:13.781Z,5.30
2019-01-26T19:41:43.880Z,5.37
2019-01-26T19:44:14.061Z,7.10
2019-01-26T19:46:44.283Z,5.80
2019-01-26T19:49:14.463Z,5.63
2019-01-26T19:51:44.526Z,6.40
2019-01-26T19:54:14.716Z,6.70
2019-01-26T19:56:44.783Z,7.30
2019-01-26T19:59:14.952Z,8.00
2019-01-26T20:01:45.004Z,7.63
2019-01-26T20:04:15.225Z,4.80
2019-01-26T20:06:45.647Z,4.57
2019-01-26T20:09:16.275Z,6.65
2019-01-26T20:11:46.496Z,3.67
2019-01-26T20:14:16.711Z,4.83
2019-01-26T20:16:46.918Z,3.90
2019-01-26T20:19:16.987Z,4.90
2019-01-26T20:21:47.120Z,5.40
2019-01-26T20:24:17.159Z,4.10
2019-01-26T20:26:47.433Z,4.03
2019-01-26T20:29:17.554Z,3.80
2019-01-26T20:31:47.769Z,3.43
2019-01-26T20:34:17.969Z,5.37
2019-01-26T20:36:48.021Z,4.67
2019-01-26T20:39:18.150Z,4.00
2019-01-26T20:41:48.415Z,3.40
2019-01-26T20:44:18.546Z,5.60
2019-01-26T20:46:48.808Z,5.20
2019-01-26T20:49:18.866Z,4.50
2019-01-26T20:51:49.202Z,3.60
2019-01-26T20:54:19.306Z,5.00
2019-01-26T20:56:49.541Z,3.30
2019-01-26T20:59:19.651Z,3.97
2019-01-26T21:01:49.913Z,3.70
2019-01-26T21:04:20.017Z,9.93
2019-01-26T21:06:50.172Z,5.97
2019-01-26T21:09:20.481Z,4.87
2019-01-26T21:11:50.526Z,4.53
2019-01-26T21:14:20.749Z,4.50
2019-01-26T21:16:50.961Z,4.10
2019-01-26T21:19:20.993Z,4.63
2019-01-26T21:21:51.269Z,5.17
2019-01-26T21:24:21.531Z,3.47
2019-01-26T21:26:51.745Z,4.17
2019-01-26T21:29:21.938Z,3.83
2019-01-26T21:31:52.130Z,4.33
2019-01-26T21:34:22.374Z,4.40
2019-01-26T21:36:52.554Z,6.30
2019-01-26T21:39:23.747Z,9.28
2019-01-26T21:41:53.817Z,9.73
2019-01-26T21:44:23.950Z,6.00
2019-01-26T21:46:54.068Z,4.40
2019-01-26T21:49:24.234Z,5.90
2019-01-26T21:51:54.353Z,6.83
2019-01-26T21:54:24.604Z,5.70
2019-01-26T21:56:54.676Z,6.07
2019-01-26T21:59:24.793Z,4.47
2019-01-26T22:01:54.865Z,5.97
2019-01-26T22:04:25.228Z,6.27
2019-01-26T22:06:55.347Z,6.73
2019-01-26T22:09:25.398Z,4.20
2019-01-26T22:11:55.491Z,5.07
2019-01-26T22:14:25.610Z,4.50
2019-01-26T22:16:55.677Z,5.10
2019-01-26T22:19:25.701Z,5.43
2019-01-26T22:21:55.848Z,5.70
2019-01-26T22:24:25.853Z,6.42
2019-01-26T22:26:55.849Z,5.75
2019-01-26T22:29:31.183Z,6.87
2019-01-26T22:31:57.734Z,5.30
2019-01-26T22:34:27.861Z,5.30
2019-01-26T22:36:57.930Z,6.93
2019-01-26T22:39:28.165Z,6.80
2019-01-26T22:41:58.274Z,6.40
2019-01-26T22:44:28.309Z,7.20
2019-01-26T22:46:58.370Z,6.10
2019-01-26T22:49:28.408Z,8.90
2019-01-26T22:51:58.462Z,7.80
2019-01-26T22:54:28.504Z,6.63
2019-01-26T22:56:58.565Z,6.25
2019-01-26T22:59:28.586Z,6.40
2019-01-26T23:01:58.760Z,7.45
2019-01-26T23:04:50.790Z,7.70
2019-01-26T23:07:30.828Z,9.23
2019-01-26T23:10:31.056Z,6.50
2019-01-26T23:13:40.836Z,8.30
2019-01-26T23:16:46.626Z,7.27
2019-01-26T23:19:32.951Z,6.67
2019-01-26T23:23:02.089Z,14.70
2019-01-26T23:26:27.356Z,31.93
2019-01-26T23:29:27.396Z,13.80
2019-01-26T23:31:57.478Z,10.10
2019-01-26T23:34:27.542Z,5.22
2019-01-26T23:36:57.658Z,21.13
2019-01-26T23:39:27.814Z,21.60
2019-01-26T23:41:57.882Z,12.30
2019-01-26T23:44:27.904Z,11.40
2019-01-26T23:46:57.875Z,8.70
2019-01-26T23:49:27.937Z,8.67
2019-01-26T23:51:57.931Z,7.50
2019-01-26T23:54:28.014Z,6.13
2019-01-26T23:56:58.064Z,8.00
2019-01-26T23:59:28.109Z,6.80
